Canebrake, West Virginia
Current Conditions -  °F | °C
As of 4:35 PM on Saturday 25 Oct 2014 (Local Time) from KJFZ Reporting Station
Overcast Overcast  
Wind Chill: 19°   Ceiling: 3700
Heat Index: 19°   Visibility: 10mi
Dew Point: -2°   Wind: 8mph
Humidity: 25%   Direction: 260°W
Pressure: 30.01"   Gusts: NA
Location:  37.2686°N, 81.6669°W
Report Text: KJFZ 252035Z AUTO 26007KT 10SM BKN037 OVC046 19/M02 A3001 RMK AO2 T01871019
Loading
Personal Weather Stations






























Interactive Weather Map
Tropical Storm Tracking
New forecast layout! Learn more

10-Day Weather Forecast

Advertisements
Track Severe Weather on mobile